createdAt,value
2022-12-01T00:02:29.667Z,6.12
2022-12-01T00:05:14.721Z,6.15
2022-12-01T00:07:59.896Z,6.14
2022-12-01T00:10:45.102Z,6.13
2022-12-01T00:13:30.264Z,6.09
2022-12-01T00:16:17.111Z,6.10
2022-12-01T00:19:01.904Z,6.19
2022-12-01T00:21:47.171Z,6.19
2022-12-01T00:24:32.371Z,6.19
2022-12-01T00:27:17.237Z,6.16
2022-12-01T00:30:02.454Z,6.12
2022-12-01T00:32:48.575Z,6.14
2022-12-01T00:35:33.826Z,6.08
2022-12-01T00:38:18.615Z,5.99
2022-12-01T00:41:04.331Z,6.11
2022-12-01T00:43:49.969Z,6.03
2022-12-01T00:46:35.244Z,5.94
2022-12-01T00:49:20.298Z,5.90
2022-12-01T00:52:05.863Z,6.00
2022-12-01T00:54:50.866Z,6.06
2022-12-01T00:57:35.997Z,6.05
2022-12-01T01:00:21.527Z,6.07
2022-12-01T01:03:07.479Z,6.06
2022-12-01T01:05:52.619Z,6.06
2022-12-01T01:08:38.891Z,6.10
2022-12-01T01:11:24.055Z,6.11
2022-12-01T01:14:09.353Z,5.96
2022-12-01T01:16:56.265Z,5.91
2022-12-01T01:19:40.838Z,6.00
2022-12-01T01:22:25.986Z,6.02
2022-12-01T01:25:10.881Z,6.02
2022-12-01T01:27:56.122Z,5.92
2022-12-01T01:30:41.541Z,6.04
2022-12-01T01:33:26.399Z,6.10
2022-12-01T01:36:11.800Z,6.12
2022-12-01T01:38:57.039Z,5.95
2022-12-01T01:41:42.207Z,6.01
2022-12-01T01:44:48.219Z,6.04
2022-12-01T01:47:36.688Z,6.09
2022-12-01T01:50:25.231Z,6.01
2022-12-01T01:53:13.552Z,6.01
2022-12-01T01:56:00.422Z,6.00
2022-12-01T01:58:45.626Z,6.06
2022-12-01T02:01:31.304Z,6.05
2022-12-01T02:04:16.401Z,6.11
2022-12-01T02:07:01.381Z,6.05
2022-12-01T02:09:47.131Z,6.05
2022-12-01T02:12:48.839Z,6.02
2022-12-01T02:15:40.850Z,6.09
2022-12-01T02:18:38.562Z,6.12
2022-12-01T02:21:40.324Z,5.98
2022-12-01T02:24:51.957Z,5.93
2022-12-01T02:28:05.485Z,5.99
2022-12-01T02:30:56.599Z,5.94
2022-12-01T02:33:56.255Z,6.04
2022-12-01T02:37:08.422Z,6.03
2022-12-01T02:40:06.354Z,6.02
2022-12-01T02:43:17.384Z,6.02
2022-12-01T02:46:12.635Z,6.05
2022-12-01T02:49:01.762Z,5.94
2022-12-01T02:51:48.586Z,6.02
2022-12-01T02:54:34.560Z,6.03
2022-12-01T02:57:19.770Z,6.05
2022-12-01T03:00:06.545Z,6.02
2022-12-01T03:02:59.829Z,6.03
2022-12-01T03:05:53.051Z,5.95
2022-12-01T03:08:56.350Z,5.98
2022-12-01T03:12:04.449Z,5.86
2022-12-01T03:15:08.126Z,5.93
2022-12-01T03:18:10.134Z,5.92
2022-12-01T03:21:20.819Z,5.75
2022-12-01T03:24:11.514Z,5.95
2022-12-01T03:26:59.252Z,5.73
2022-12-01T03:29:48.610Z,5.77
2022-12-01T03:32:41.583Z,5.74
2022-12-01T03:35:38.346Z,5.80
2022-12-01T03:38:29.019Z,5.83
2022-12-01T03:41:19.410Z,5.76
2022-12-01T03:44:11.227Z,5.74
2022-12-01T03:47:03.209Z,5.79
2022-12-01T03:49:50.901Z,5.80
2022-12-01T03:52:48.341Z,5.74
2022-12-01T03:55:38.828Z,5.79
2022-12-01T03:58:34.010Z,5.68
2022-12-01T04:01:20.625Z,5.69
2022-12-01T04:04:13.825Z,5.69
2022-12-01T04:06:58.884Z,5.72
2022-12-01T04:09:44.281Z,5.66
2022-12-01T04:12:29.334Z,5.67
2022-12-01T04:15:15.510Z,5.68
2022-12-01T04:18:00.304Z,5.72
2022-12-01T04:20:46.951Z,5.70
2022-12-01T04:23:50.705Z,5.73
2022-12-01T04:26:37.221Z,5.75
2022-12-01T04:29:21.972Z,5.77
2022-12-01T04:32:07.049Z,5.76
2022-12-01T04:34:51.962Z,5.65
2022-12-01T04:37:37.382Z,5.77
2022-12-01T04:40:22.526Z,5.82
2022-12-01T04:43:07.513Z,5.73
2022-12-01T04:45:52.549Z,5.76
2022-12-01T04:48:38.964Z,5.81
2022-12-01T04:51:23.802Z,5.82
2022-12-01T04:54:08.760Z,5.73
2022-12-01T04:56:53.782Z,5.63
2022-12-01T04:59:38.835Z,5.68
2022-12-01T05:02:24.003Z,5.73
2022-12-01T05:05:10.229Z,5.69
2022-12-01T05:07:55.673Z,5.59
2022-12-01T05:10:40.306Z,5.65
2022-12-01T05:13:25.928Z,5.72
2022-12-01T05:16:19.759Z,5.77
2022-12-01T05:19:24.048Z,5.78
2022-12-01T05:22:09.162Z,5.73
2022-12-01T05:24:54.251Z,5.79
2022-12-01T05:27:39.311Z,5.72
2022-12-01T05:30:28.512Z,5.78
2022-12-01T05:33:13.986Z,5.76
2022-12-01T05:35:59.047Z,5.83
2022-12-01T05:38:44.245Z,5.86
2022-12-01T05:41:29.236Z,5.68
2022-12-01T05:44:14.191Z,5.75
2022-12-01T05:46:59.488Z,5.81
2022-12-01T05:49:44.613Z,5.69
2022-12-01T05:52:29.806Z,5.53
2022-12-01T05:55:14.783Z,5.72
2022-12-01T05:58:00.594Z,5.80
2022-12-01T06:00:46.329Z,5.81
2022-12-01T06:03:31.250Z,5.80
2022-12-01T06:06:16.147Z,5.70
2022-12-01T06:09:01.122Z,5.75
2022-12-01T06:11:49.010Z,5.71
2022-12-01T06:14:37.114Z,5.71
2022-12-01T06:17:22.198Z,5.68
2022-12-01T06:20:08.265Z,5.69
2022-12-01T06:22:53.648Z,5.73
2022-12-01T06:25:38.576Z,5.79
2022-12-01T06:28:23.710Z,5.67
2022-12-01T06:31:08.655Z,5.65
2022-12-01T06:33:53.858Z,5.55
2022-12-01T06:36:38.950Z,5.71
2022-12-01T06:39:24.059Z,5.73
2022-12-01T06:42:09.222Z,5.64
2022-12-01T06:44:54.303Z,5.63
2022-12-01T06:47:39.758Z,5.57
2022-12-01T06:50:25.009Z,5.64
2022-12-01T06:53:11.224Z,5.57
2022-12-01T06:56:04.276Z,5.64
2022-12-01T06:58:50.358Z,5.62
2022-12-01T07:01:36.165Z,5.66
2022-12-01T07:04:21.058Z,5.72
2022-12-01T07:07:06.270Z,5.68
2022-12-01T07:09:51.530Z,5.58
2022-12-01T07:12:37.471Z,5.69
2022-12-01T07:15:23.263Z,5.64
2022-12-01T07:18:08.262Z,5.56
2022-12-01T07:20:53.313Z,5.68
2022-12-01T07:23:38.967Z,5.66
2022-12-01T07:26:24.018Z,5.69
2022-12-01T07:29:10.401Z,5.65
2022-12-01T07:31:55.321Z,5.64
2022-12-01T07:34:40.355Z,5.76
2022-12-01T07:37:25.578Z,5.75
2022-12-01T07:40:11.228Z,5.54
2022-12-01T07:42:56.147Z,5.55
2022-12-01T07:45:41.299Z,5.66
2022-12-01T07:48:26.319Z,5.64
2022-12-01T07:51:14.980Z,5.58
2022-12-01T07:54:05.029Z,5.47
2022-12-01T07:56:50.214Z,5.50
2022-12-01T07:59:35.302Z,5.40
2022-12-01T08:02:20.372Z,5.35
2022-12-01T08:05:05.890Z,5.52
2022-12-01T08:07:53.678Z,5.59
2022-12-01T08:10:38.339Z,5.55
2022-12-01T08:13:23.406Z,5.62
2022-12-01T08:16:10.769Z,5.70
2022-12-01T08:18:55.946Z,5.78
2022-12-01T08:21:41.075Z,5.81
2022-12-01T08:24:26.137Z,5.87
2022-12-01T08:27:10.994Z,5.82
2022-12-01T08:29:56.193Z,5.86
2022-12-01T08:32:41.405Z,5.94
2022-12-01T08:35:26.708Z,5.84
2022-12-01T08:38:12.088Z,5.91
2022-12-01T08:41:06.714Z,5.80
2022-12-01T08:44:00.159Z,5.93
2022-12-01T08:46:45.781Z,5.80
2022-12-01T08:49:31.104Z,5.90
2022-12-01T08:52:15.965Z,5.94
2022-12-01T08:55:01.262Z,5.80
2022-12-01T08:57:46.073Z,5.86
2022-12-01T09:00:31.145Z,5.85
2022-12-01T09:03:16.131Z,5.94
2022-12-01T09:06:06.987Z,5.93
2022-12-01T09:08:52.029Z,5.90
2022-12-01T09:11:37.618Z,5.87
2022-12-01T09:14:23.206Z,6.04
2022-12-01T09:17:09.032Z,5.95
2022-12-01T09:19:53.869Z,6.02
2022-12-01T09:22:38.949Z,5.99
2022-12-01T09:25:25.661Z,5.89
2022-12-01T09:28:10.627Z,6.04
2022-12-01T09:30:56.101Z,6.08
2022-12-01T09:33:40.857Z,5.87
2022-12-01T09:36:26.452Z,5.86
2022-12-01T09:39:19.709Z,6.07
2022-12-01T09:42:12.817Z,5.96
2022-12-01T09:45:01.597Z,6.13
2022-12-01T09:47:46.944Z,6.21
2022-12-01T09:50:32.563Z,6.22
2022-12-01T09:53:21.691Z,6.20
2022-12-01T09:56:13.539Z,6.09
2022-12-01T09:59:01.532Z,5.98
2022-12-01T10:01:49.720Z,6.08
2022-12-01T10:04:44.514Z,6.13
2022-12-01T10:07:39.294Z,6.18
2022-12-01T10:10:36.241Z,6.23
2022-12-01T10:13:23.886Z,6.05
2022-12-01T10:16:12.397Z,6.28
2022-12-01T10:19:13.920Z,6.23
2022-12-01T10:22:39.031Z,6.37
2022-12-01T10:25:26.733Z,6.37
2022-12-01T10:28:44.185Z,6.42
2022-12-01T10:31:37.601Z,6.26
2022-12-01T10:34:27.029Z,6.28
2022-12-01T10:37:30.702Z,6.34
2022-12-01T10:40:16.915Z,6.33
2022-12-01T10:43:02.685Z,6.30
2022-12-01T10:45:47.672Z,6.19
2022-12-01T10:48:32.551Z,6.28
2022-12-01T10:51:19.339Z,6.27
2022-12-01T10:54:11.305Z,6.30
2022-12-01T10:56:58.285Z,6.15
2022-12-01T11:00:00.127Z,6.10
2022-12-01T11:02:45.521Z,6.19
2022-12-01T11:05:37.665Z,6.19
2022-12-01T11:08:25.209Z,6.23
2022-12-01T11:11:36.555Z,6.19
2022-12-01T11:14:26.237Z,6.10
2022-12-01T11:17:30.983Z,6.12
2022-12-01T11:20:28.790Z,6.09
2022-12-01T11:23:24.282Z,6.05
2022-12-01T11:26:17.543Z,6.03
2022-12-01T11:29:06.211Z,5.99
2022-12-01T11:31:53.027Z,5.98
2022-12-01T11:34:38.664Z,6.03
2022-12-01T11:37:29.839Z,6.06
2022-12-01T11:40:25.150Z,6.01
2022-12-01T11:43:22.075Z,5.97
2022-12-01T11:46:08.873Z,5.96
2022-12-01T11:48:58.365Z,6.07
2022-12-01T11:51:43.323Z,6.01
2022-12-01T11:54:28.430Z,6.09
2022-12-01T11:57:33.837Z,6.05
2022-12-01T12:00:20.421Z,6.11
2022-12-01T12:03:29.212Z,6.33
2022-12-01T12:06:42.943Z,6.14
2022-12-01T12:09:35.133Z,6.11
2022-12-01T12:12:39.323Z,6.10
2022-12-01T12:15:45.253Z,6.04
2022-12-01T12:18:43.106Z,6.02
2022-12-01T12:21:34.141Z,5.96
2022-12-01T12:24:35.530Z,5.97
2022-12-01T12:27:40.564Z,5.94
2022-12-01T12:30:31.289Z,6.04
2022-12-01T12:33:19.118Z,5.90
2022-12-01T12:36:24.850Z,5.89
2022-12-01T12:39:40.633Z,6.08
2022-12-01T12:42:51.991Z,6.04
2022-12-01T12:46:14.183Z,6.07
2022-12-01T12:49:20.790Z,5.99
2022-12-01T12:52:20.746Z,5.93
2022-12-01T12:55:38.804Z,5.93
2022-12-01T12:58:41.617Z,5.91
2022-12-01T13:01:33.626Z,5.94
2022-12-01T13:04:24.314Z,5.90
2022-12-01T13:07:34.239Z,5.87
2022-12-01T13:10:28.922Z,5.90
2022-12-01T13:13:27.823Z,5.86
2022-12-01T13:16:21.461Z,5.89
2022-12-01T13:19:39.066Z,5.88
2022-12-01T13:22:31.737Z,5.84
2022-12-01T13:25:35.039Z,5.85
2022-12-01T13:28:24.014Z,5.82
2022-12-01T13:31:12.639Z,5.79
2022-12-01T13:34:00.667Z,5.79
2022-12-01T13:36:53.642Z,5.80
2022-12-01T13:39:41.840Z,5.85
2022-12-01T13:42:27.837Z,5.84
2022-12-01T13:45:19.282Z,5.87
2022-12-01T13:48:05.809Z,5.76
2022-12-01T13:51:02.326Z,5.72
2022-12-01T13:54:01.015Z,5.70
2022-12-01T13:56:58.183Z,5.64
2022-12-01T13:59:58.233Z,5.84
2022-12-01T14:02:43.546Z,5.85
2022-12-01T14:05:56.955Z,5.93
2022-12-01T14:08:49.469Z,5.90
2022-12-01T14:11:35.049Z,5.86
2022-12-01T14:14:26.264Z,5.89
2022-12-01T14:17:44.872Z,5.87
2022-12-01T14:20:34.974Z,5.87
2022-12-01T14:23:30.496Z,5.81
2022-12-01T14:26:20.893Z,5.89
2022-12-01T14:29:07.750Z,5.84
2022-12-01T14:31:52.754Z,5.77
2022-12-01T14:34:38.914Z,5.78
2022-12-01T14:37:28.685Z,5.80
2022-12-01T14:40:21.149Z,5.82
2022-12-01T14:43:30.345Z,5.89
2022-12-01T14:46:22.378Z,5.80
2022-12-01T14:49:13.933Z,5.72
2022-12-01T14:52:06.694Z,5.74
2022-12-01T14:54:53.881Z,5.72
2022-12-01T14:57:45.856Z,5.70
2022-12-01T15:00:31.443Z,5.67
2022-12-01T15:03:16.483Z,5.68
2022-12-01T15:06:01.770Z,5.65
2022-12-01T15:09:04.094Z,5.62
2022-12-01T15:12:00.018Z,5.63
2022-12-01T15:14:49.623Z,5.67
2022-12-01T15:17:36.921Z,5.65
2022-12-01T15:20:34.461Z,5.64
2022-12-01T15:23:19.394Z,5.61
2022-12-01T15:26:04.810Z,5.59
2022-12-01T15:28:49.647Z,5.58
2022-12-01T15:31:35.192Z,5.56
2022-12-01T15:34:24.698Z,5.53
2022-12-01T15:37:14.196Z,5.54
2022-12-01T15:43:19.136Z,5.44
2022-12-01T15:46:16.495Z,5.43
2022-12-01T15:49:09.205Z,5.47
2022-12-01T15:51:56.128Z,5.47
2022-12-01T15:54:47.905Z,5.37
2022-12-01T15:57:34.273Z,5.39
2022-12-01T16:00:20.473Z,5.42
2022-12-01T16:03:05.405Z,5.38
2022-12-01T16:05:51.007Z,5.34
2022-12-01T16:08:36.209Z,5.31
2022-12-01T16:11:21.928Z,5.31
2022-12-01T16:14:18.789Z,5.30
2022-12-01T16:17:04.723Z,5.32
2022-12-01T16:20:17.545Z,5.27
2022-12-01T16:23:09.537Z,5.29
2022-12-01T16:25:59.079Z,5.34
2022-12-01T16:28:46.675Z,5.33
2022-12-01T16:31:32.280Z,5.31
2022-12-01T16:34:44.668Z,5.30
2022-12-01T16:37:27.713Z,5.32
2022-12-01T16:40:13.756Z,5.35
2022-12-01T16:42:58.550Z,5.32
2022-12-01T16:45:45.286Z,5.35
2022-12-01T16:48:31.099Z,5.33
2022-12-01T16:51:17.301Z,5.30
2022-12-01T16:54:10.097Z,5.26
2022-12-01T16:56:55.147Z,5.27
2022-12-01T16:59:40.188Z,5.30
2022-12-01T17:02:25.333Z,5.25
2022-12-01T17:05:11.334Z,5.24
2022-12-01T17:07:56.756Z,5.20
2022-12-01T17:10:46.296Z,5.26
2022-12-01T17:13:31.378Z,5.28
2022-12-01T17:16:18.751Z,5.28
2022-12-01T17:19:04.250Z,5.27
2022-12-01T17:21:49.374Z,5.29
2022-12-01T17:24:34.595Z,5.32
2022-12-01T17:27:19.318Z,5.30
2022-12-01T17:30:06.157Z,5.28
2022-12-01T17:32:50.852Z,5.26
2022-12-01T17:35:38.530Z,5.27
2022-12-01T17:38:23.302Z,5.23
2022-12-01T17:41:13.944Z,5.20
2022-12-01T17:44:02.269Z,5.23
2022-12-01T17:46:47.130Z,5.21
2022-12-01T17:49:32.183Z,5.25
2022-12-01T17:52:17.170Z,5.17
2022-12-01T17:55:02.223Z,5.17
2022-12-01T17:57:47.371Z,5.11
2022-12-01T18:00:32.510Z,5.14
2022-12-01T18:03:17.851Z,5.05
2022-12-01T18:06:02.909Z,5.06
2022-12-01T18:08:48.789Z,5.07
2022-12-01T18:11:33.999Z,5.07
2022-12-01T18:14:19.004Z,5.09
2022-12-01T18:17:05.364Z,5.08
2022-12-01T18:19:50.282Z,5.07
2022-12-01T18:22:35.305Z,4.99
2022-12-01T18:25:20.264Z,4.99
2022-12-01T18:28:06.262Z,5.03
2022-12-01T18:30:51.078Z,5.01
2022-12-01T18:33:38.250Z,5.08
2022-12-01T18:36:24.262Z,5.06
2022-12-01T18:39:11.309Z,5.03
2022-12-01T18:41:56.531Z,4.95
2022-12-01T18:44:42.522Z,5.02
2022-12-01T18:47:29.127Z,5.06
2022-12-01T18:50:14.182Z,5.08
2022-12-01T18:52:59.011Z,5.02
2022-12-01T18:55:44.403Z,4.98
2022-12-01T18:58:29.678Z,5.01
2022-12-01T19:01:21.403Z,5.00
2022-12-01T19:04:08.304Z,5.01
2022-12-01T19:06:54.827Z,5.03
2022-12-01T19:09:40.067Z,5.03
2022-12-01T19:12:25.217Z,4.94
2022-12-01T19:15:10.646Z,4.91
2022-12-01T19:17:55.806Z,4.92
2022-12-01T19:20:40.630Z,4.97
2022-12-01T19:23:26.587Z,5.00
2022-12-01T19:26:14.455Z,4.88
2022-12-01T19:28:59.375Z,4.94
2022-12-01T19:31:44.683Z,4.92
2022-12-01T19:34:29.902Z,4.88
2022-12-01T19:37:15.102Z,4.83
2022-12-01T19:40:00.345Z,4.87
2022-12-01T19:42:45.698Z,4.80
2022-12-01T19:45:31.490Z,4.79
2022-12-01T19:48:16.337Z,4.78
2022-12-01T19:51:02.105Z,4.72
2022-12-01T19:53:47.655Z,4.68
2022-12-01T19:56:33.478Z,4.74
2022-12-01T19:59:18.683Z,4.77
2022-12-01T20:02:04.662Z,4.70
2022-12-01T20:04:50.524Z,4.62
2022-12-01T20:07:35.828Z,4.61
2022-12-01T20:10:20.796Z,4.66
2022-12-01T20:13:05.855Z,4.68
2022-12-01T20:15:50.785Z,4.55
2022-12-01T20:18:36.673Z,4.52
2022-12-01T20:21:24.816Z,4.51
2022-12-01T20:24:13.213Z,4.58
2022-12-01T20:26:58.033Z,4.59
2022-12-01T20:29:43.145Z,4.57
2022-12-01T20:32:29.708Z,4.54
2022-12-01T20:35:15.491Z,4.46
2022-12-01T20:38:00.462Z,4.43
2022-12-01T20:40:45.625Z,4.51
2022-12-01T20:43:32.269Z,4.39
2022-12-01T20:46:17.527Z,4.38
2022-12-01T20:49:03.921Z,4.39
2022-12-01T20:51:48.883Z,4.35
2022-12-01T20:54:34.008Z,4.28
2022-12-01T20:57:18.909Z,4.26
2022-12-01T21:00:05.207Z,4.24
2022-12-01T21:02:50.470Z,4.43
2022-12-01T21:05:42.033Z,4.36
2022-12-01T21:08:26.881Z,4.32
2022-12-01T21:12:07.282Z,4.25
2022-12-01T21:15:02.113Z,4.56
2022-12-01T21:17:55.509Z,4.36
2022-12-01T21:20:43.878Z,4.20
2022-12-01T21:23:28.593Z,4.23
2022-12-01T21:26:16.313Z,4.18
2022-12-01T21:29:17.000Z,4.23
2022-12-01T21:32:11.750Z,4.17
2022-12-01T21:35:02.473Z,4.19
2022-12-01T21:37:48.737Z,4.17
2022-12-01T21:40:33.958Z,4.16
2022-12-01T21:43:24.433Z,4.16
2022-12-01T21:46:17.732Z,4.28
2022-12-01T21:49:10.825Z,4.36
2022-12-01T21:51:55.826Z,4.17
2022-12-01T21:54:41.060Z,4.21
2022-12-01T21:57:42.927Z,4.45
2022-12-01T22:00:35.827Z,4.24
2022-12-01T22:03:26.879Z,4.09
2022-12-01T22:06:35.761Z,4.14
2022-12-01T22:09:33.549Z,4.31
2022-12-01T22:12:28.932Z,4.28
2022-12-01T22:15:39.375Z,4.19
2022-12-01T22:18:31.423Z,4.14
2022-12-01T22:21:22.467Z,4.16
2022-12-01T22:24:10.141Z,4.29
2022-12-01T22:27:27.864Z,4.32
2022-12-01T22:30:23.694Z,4.24
2022-12-01T22:33:18.972Z,4.29
2022-12-01T22:36:18.737Z,4.29
2022-12-01T22:39:22.450Z,4.22
2022-12-01T22:42:13.396Z,4.09
2022-12-01T22:45:23.376Z,4.25
2022-12-01T22:48:33.691Z,4.28
2022-12-01T22:51:23.017Z,4.17
2022-12-01T22:54:14.024Z,4.16
2022-12-01T22:57:16.334Z,4.11
2022-12-01T23:00:13.885Z,4.14
2022-12-01T23:02:59.039Z,4.06
2022-12-01T23:05:44.448Z,4.09
2022-12-01T23:08:29.487Z,4.08
2022-12-01T23:11:14.423Z,4.02
2022-12-01T23:13:59.594Z,4.05
2022-12-01T23:16:44.770Z,4.09
2022-12-01T23:19:31.805Z,4.07
2022-12-01T23:22:16.767Z,4.17
2022-12-01T23:25:11.410Z,4.21
2022-12-01T23:28:00.822Z,4.00
2022-12-01T23:30:49.276Z,4.03
2022-12-01T23:33:34.996Z,4.06
2022-12-01T23:36:25.686Z,4.12
2022-12-01T23:39:12.901Z,4.22
2022-12-01T23:41:58.648Z,4.40
2022-12-01T23:44:49.517Z,4.24
2022-12-01T23:47:34.938Z,4.24
2022-12-01T23:50:23.176Z,4.22
2022-12-01T23:53:25.581Z,3.96
2022-12-01T23:56:15.826Z,3.97
2022-12-01T23:59:00.870Z,4.03
